sensor_id;sensor_type;location;lat;lon;timestamp;pressure;altitude;pressure_sealevel;temperature
19568;BMP280;9930;49.240;8.548;2023-03-15T00:01:15;100253.88;;;9.85
19568;BMP280;9930;49.240;8.548;2023-03-15T00:03:47;100262.28;;;9.82
19568;BMP280;9930;49.240;8.548;2023-03-15T00:06:13;100256.16;;;9.77
19568;BMP280;9930;49.240;8.548;2023-03-15T00:08:42;100254.28;;;9.73
19568;BMP280;9930;49.240;8.548;2023-03-15T00:11:13;100262.81;;;9.73
19568;BMP280;9930;49.240;8.548;2023-03-15T00:13:39;100271.44;;;9.77
19568;BMP280;9930;49.240;8.548;2023-03-15T00:16:06;100281.63;;;9.77
19568;BMP280;9930;49.240;8.548;2023-03-15T00:18:34;100265.13;;;9.67
19568;BMP280;9930;49.240;8.548;2023-03-15T00:21:00;100283.97;;;9.72
19568;BMP280;9930;49.240;8.548;2023-03-15T00:23:29;100281.94;;;9.64
19568;BMP280;9930;49.240;8.548;2023-03-15T00:25:56;100294.78;;;9.67
19568;BMP280;9930;49.240;8.548;2023-03-15T00:28:24;100297.22;;;9.64
19568;BMP280;9930;49.240;8.548;2023-03-15T00:31:02;100291.72;;;9.53
19568;BMP280;9930;49.240;8.548;2023-03-15T00:33:28;100285.50;;;9.47
19568;BMP280;9930;49.240;8.548;2023-03-15T00:36:00;100282.53;;;9.36
19568;BMP280;9930;49.240;8.548;2023-03-15T00:38:26;100307.44;;;9.43
19568;BMP280;9930;49.240;8.548;2023-03-15T00:40:57;100303.75;;;9.36
19568;BMP280;9930;49.240;8.548;2023-03-15T00:43:25;100295.56;;;9.23
19568;BMP280;9930;49.240;8.548;2023-03-15T00:45:51;100312.63;;;9.25
19568;BMP280;9930;49.240;8.548;2023-03-15T00:48:17;100321.75;;;9.20
19568;BMP280;9930;49.240;8.548;2023-03-15T00:50:42;100318.94;;;9.14
19568;BMP280;9930;49.240;8.548;2023-03-15T00:53:08;100315.16;;;9.04
19568;BMP280;9930;49.240;8.548;2023-03-15T00:55:34;100322.78;;;9.04
19568;BMP280;9930;49.240;8.548;2023-03-15T00:58:00;100322.53;;;8.98
19568;BMP280;9930;49.240;8.548;2023-03-15T01:00:28;100317.84;;;8.88
19568;BMP280;9930;49.240;8.548;2023-03-15T01:02:54;100325.63;;;8.91
19568;BMP280;9930;49.240;8.548;2023-03-15T01:05:20;100333.06;;;8.87
19568;BMP280;9930;49.240;8.548;2023-03-15T01:07:46;100340.56;;;8.84
19568;BMP280;9930;49.240;8.548;2023-03-15T01:10:14;100336.13;;;8.80
19568;BMP280;9930;49.240;8.548;2023-03-15T01:12:40;100333.06;;;8.67
19568;BMP280;9930;49.240;8.548;2023-03-15T01:15:08;100349.31;;;8.71
19568;BMP280;9930;49.240;8.548;2023-03-15T01:17:36;100345.78;;;8.67
19568;BMP280;9930;49.240;8.548;2023-03-15T01:20:02;100328.31;;;8.56
19568;BMP280;9930;49.240;8.548;2023-03-15T01:22:30;100339.47;;;8.59
19568;BMP280;9930;49.240;8.548;2023-03-15T01:24:55;100339.06;;;8.50
19568;BMP280;9930;49.240;8.548;2023-03-15T01:27:21;100320.72;;;8.38
19568;BMP280;9930;49.240;8.548;2023-03-15T01:29:47;100337.00;;;8.41
19568;BMP280;9930;49.240;8.548;2023-03-15T01:32:14;100335.13;;;8.37
19568;BMP280;9930;49.240;8.548;2023-03-15T01:34:42;100351.44;;;8.42
19568;BMP280;9930;49.240;8.548;2023-03-15T01:37:09;100339.81;;;8.30
19568;BMP280;9930;49.240;8.548;2023-03-15T01:39:39;100357.91;;;8.36
19568;BMP280;9930;49.240;8.548;2023-03-15T01:42:06;100354.31;;;8.32
19568;BMP280;9930;49.240;8.548;2023-03-15T01:44:51;100354.19;;;8.29
19568;BMP280;9930;49.240;8.548;2023-03-15T01:47:22;100354.91;;;8.27
19568;BMP280;9930;49.240;8.548;2023-03-15T01:50:11;100352.97;;;8.21
19568;BMP280;9930;49.240;8.548;2023-03-15T01:52:43;100346.94;;;8.19
19568;BMP280;9930;49.240;8.548;2023-03-15T01:55:15;100352.75;;;8.17
19568;BMP280;9930;49.240;8.548;2023-03-15T01:57:47;100341.16;;;8.04
19568;BMP280;9930;49.240;8.548;2023-03-15T02:00:18;100346.25;;;8.04
19568;BMP280;9930;49.240;8.548;2023-03-15T02:05:31;100339.88;;;7.94
19568;BMP280;9930;49.240;8.548;2023-03-15T02:07:58;100346.53;;;7.92
19568;BMP280;9930;49.240;8.548;2023-03-15T02:10:47;100357.78;;;7.97
19568;BMP280;9930;49.240;8.548;2023-03-15T02:13:20;100343.72;;;7.86
19568;BMP280;9930;49.240;8.548;2023-03-15T02:15:50;100374.41;;;7.91
19568;BMP280;9930;49.240;8.548;2023-03-15T02:18:20;100369.75;;;7.82
19568;BMP280;9930;49.240;8.548;2023-03-15T02:24:08;100393.41;;;7.81
19568;BMP280;9930;49.240;8.548;2023-03-15T02:26:56;100393.59;;;7.68
19568;BMP280;9930;49.240;8.548;2023-03-15T02:29:26;100406.59;;;7.74
19568;BMP280;9930;49.240;8.548;2023-03-15T02:31:57;100386.56;;;7.62
19568;BMP280;9930;49.240;8.548;2023-03-15T02:34:26;100396.63;;;7.61
19568;BMP280;9930;49.240;8.548;2023-03-15T02:36:56;100411.22;;;7.65
19568;BMP280;9930;49.240;8.548;2023-03-15T02:39:22;100405.84;;;7.59
19568;BMP280;9930;49.240;8.548;2023-03-15T02:41:56;100421.16;;;7.60
19568;BMP280;9930;49.240;8.548;2023-03-15T02:44:35;100427.75;;;7.57
19568;BMP280;9930;49.240;8.548;2023-03-15T02:47:21;100427.59;;;7.54
19568;BMP280;9930;49.240;8.548;2023-03-15T02:49:52;100429.97;;;7.51
19568;BMP280;9930;49.240;8.548;2023-03-15T02:52:26;100433.22;;;7.48
19568;BMP280;9930;49.240;8.548;2023-03-15T02:54:51;100445.84;;;7.46
19568;BMP280;9930;49.240;8.548;2023-03-15T02:57:19;100444.88;;;7.44
19568;BMP280;9930;49.240;8.548;2023-03-15T02:59:47;100449.81;;;7.41
19568;BMP280;9930;49.240;8.548;2023-03-15T03:02:16;100441.91;;;7.35
19568;BMP280;9930;49.240;8.548;2023-03-15T03:04:42;100455.53;;;7.37
19568;BMP280;9930;49.240;8.548;2023-03-15T03:07:10;100449.19;;;7.29
19568;BMP280;9930;49.240;8.548;2023-03-15T03:09:36;100461.25;;;7.33
19568;BMP280;9930;49.240;8.548;2023-03-15T03:12:02;100465.28;;;7.30
19568;BMP280;9930;49.240;8.548;2023-03-15T03:14:27;100455.63;;;7.23
19568;BMP280;9930;49.240;8.548;2023-03-15T03:16:58;100454.59;;;7.19
19568;BMP280;9930;49.240;8.548;2023-03-15T03:19:25;100456.25;;;7.19
19568;BMP280;9930;49.240;8.548;2023-03-15T03:21:55;100464.66;;;7.18
19568;BMP280;9930;49.240;8.548;2023-03-15T03:24:24;100454.13;;;7.10
19568;BMP280;9930;49.240;8.548;2023-03-15T03:26:55;100463.53;;;7.12
19568;BMP280;9930;49.240;8.548;2023-03-15T03:29:25;100481.63;;;7.19
19568;BMP280;9930;49.240;8.548;2023-03-15T03:31:51;100481.47;;;7.15
19568;BMP280;9930;49.240;8.548;2023-03-15T03:34:17;100483.84;;;7.12
19568;BMP280;9930;49.240;8.548;2023-03-15T03:36:46;100496.50;;;7.12
19568;BMP280;9930;49.240;8.548;2023-03-15T03:39:17;100499.84;;;7.11
19568;BMP280;9930;49.240;8.548;2023-03-15T03:41:48;100493.72;;;7.08
19568;BMP280;9930;49.240;8.548;2023-03-15T03:44:15;100477.63;;;6.91
19568;BMP280;9930;49.240;8.548;2023-03-15T03:46:43;100500.22;;;7.03
19568;BMP280;9930;49.240;8.548;2023-03-15T03:49:09;100492.28;;;6.97
19568;BMP280;9930;49.240;8.548;2023-03-15T03:51:41;100502.59;;;7.00
19568;BMP280;9930;49.240;8.548;2023-03-15T03:54:09;100498.88;;;6.93
19568;BMP280;9930;49.240;8.548;2023-03-15T03:56:35;100502.44;;;6.97
19568;BMP280;9930;49.240;8.548;2023-03-15T03:59:01;100501.16;;;6.89
19568;BMP280;9930;49.240;8.548;2023-03-15T04:01:29;100506.41;;;6.92
19568;BMP280;9930;49.240;8.548;2023-03-15T04:03:54;100508.69;;;6.87
19568;BMP280;9930;49.240;8.548;2023-03-15T04:06:26;100514.78;;;6.91
19568;BMP280;9930;49.240;8.548;2023-03-15T04:09:02;100518.91;;;6.89
19568;BMP280;9930;49.240;8.548;2023-03-15T04:11:33;100524.75;;;6.88
19568;BMP280;9930;49.240;8.548;2023-03-15T04:14:00;100516.84;;;6.81
19568;BMP280;9930;49.240;8.548;2023-03-15T04:16:28;100528.09;;;6.87
19568;BMP280;9930;49.240;8.548;2023-03-15T04:18:56;100534.03;;;6.87
19568;BMP280;9930;49.240;8.548;2023-03-15T04:21:27;100533.16;;;6.87
19568;BMP280;9930;49.240;8.548;2023-03-15T04:23:58;100529.66;;;6.85
19568;BMP280;9930;49.240;8.548;2023-03-15T04:26:25;100529.59;;;6.83
19568;BMP280;9930;49.240;8.548;2023-03-15T04:28:57;100518.16;;;6.75
19568;BMP280;9930;49.240;8.548;2023-03-15T04:31:25;100513.00;;;6.73
19568;BMP280;9930;49.240;8.548;2023-03-15T04:33:57;100518.88;;;6.72
19568;BMP280;9930;49.240;8.548;2023-03-15T04:36:27;100516.16;;;6.69
19568;BMP280;9930;49.240;8.548;2023-03-15T04:38:53;100532.56;;;6.76
19568;BMP280;9930;49.240;8.548;2023-03-15T04:41:32;100528.22;;;6.73
19568;BMP280;9930;49.240;8.548;2023-03-15T04:44:00;100526.84;;;6.64
19568;BMP280;9930;49.240;8.548;2023-03-15T04:46:26;100535.47;;;6.67
19568;BMP280;9930;49.240;8.548;2023-03-15T04:48:55;100533.75;;;6.66
19568;BMP280;9930;49.240;8.548;2023-03-15T04:51:20;100525.72;;;6.59
19568;BMP280;9930;49.240;8.548;2023-03-15T04:53:46;100541.97;;;6.62
19568;BMP280;9930;49.240;8.548;2023-03-15T04:56:13;100542.75;;;6.61
19568;BMP280;9930;49.240;8.548;2023-03-15T04:58:39;100527.75;;;6.49
19568;BMP280;9930;49.240;8.548;2023-03-15T05:01:05;100546.78;;;6.58
19568;BMP280;9930;49.240;8.548;2023-03-15T05:03:33;100550.97;;;6.57
19568;BMP280;9930;49.240;8.548;2023-03-15T05:06:01;100544.94;;;6.55
19568;BMP280;9930;49.240;8.548;2023-03-15T05:08:34;100547.41;;;6.54
19568;BMP280;9930;49.240;8.548;2023-03-15T05:11:02;100559.19;;;6.53
19568;BMP280;9930;49.240;8.548;2023-03-15T05:13:35;100543.72;;;6.48
19568;BMP280;9930;49.240;8.548;2023-03-15T05:16:01;100552.38;;;6.52
19568;BMP280;9930;49.240;8.548;2023-03-15T05:18:28;100555.59;;;6.49
19568;BMP280;9930;49.240;8.548;2023-03-15T05:20:54;100550.72;;;6.53
19568;BMP280;9930;49.240;8.548;2023-03-15T05:23:22;100549.84;;;6.52
19568;BMP280;9930;49.240;8.548;2023-03-15T05:26:06;100554.13;;;6.53
19568;BMP280;9930;49.240;8.548;2023-03-15T05:28:32;100549.06;;;6.53
19568;BMP280;9930;49.240;8.548;2023-03-15T05:30:58;100556.81;;;6.56
19568;BMP280;9930;49.240;8.548;2023-03-15T05:33:30;100555.25;;;6.58
19568;BMP280;9930;49.240;8.548;2023-03-15T05:35:56;100560.31;;;6.58
19568;BMP280;9930;49.240;8.548;2023-03-15T05:38:23;100554.38;;;6.58
19568;BMP280;9930;49.240;8.548;2023-03-15T05:40:51;100558.91;;;6.63
19568;BMP280;9930;49.240;8.548;2023-03-15T05:43:21;100563.19;;;6.64
19568;BMP280;9930;49.240;8.548;2023-03-15T05:45:47;100567.47;;;6.65
19568;BMP280;9930;49.240;8.548;2023-03-15T05:48:13;100570.97;;;6.67
19568;BMP280;9930;49.240;8.548;2023-03-15T05:50:40;100565.91;;;6.67
19568;BMP280;9930;49.240;8.548;2023-03-15T05:53:05;100568.69;;;6.72
19568;BMP280;9930;49.240;8.548;2023-03-15T05:55:31;100574.72;;;6.74
19568;BMP280;9930;49.240;8.548;2023-03-15T05:57:57;100565.97;;;6.69
19568;BMP280;9930;49.240;8.548;2023-03-15T06:00:23;100557.16;;;6.62
19568;BMP280;9930;49.240;8.548;2023-03-15T06:02:50;100582.56;;;6.78
19568;BMP280;9930;49.240;8.548;2023-03-15T06:05:16;100543.53;;;6.60
19568;BMP280;9930;49.240;8.548;2023-03-15T06:07:42;100585.34;;;6.83
19568;BMP280;9930;49.240;8.548;2023-03-15T06:10:10;100551.06;;;6.59
19568;BMP280;9930;49.240;8.548;2023-03-15T06:12:36;100588.75;;;6.83
19568;BMP280;9930;49.240;8.548;2023-03-15T06:15:05;100602.66;;;6.90
19568;BMP280;9930;49.240;8.548;2023-03-15T06:17:33;100597.59;;;6.90
19568;BMP280;9930;49.240;8.548;2023-03-15T06:19:59;100599.41;;;6.93
19568;BMP280;9930;49.240;8.548;2023-03-15T06:22:26;100603.69;;;6.94
19568;BMP280;9930;49.240;8.548;2023-03-15T06:24:54;100605.78;;;7.01
19568;BMP280;9930;49.240;8.548;2023-03-15T06:27:20;100596.50;;;7.01
19568;BMP280;9930;49.240;8.548;2023-03-15T06:29:48;100602.63;;;7.05
19568;BMP280;9930;49.240;8.548;2023-03-15T06:32:15;100600.16;;;7.06
19568;BMP280;9930;49.240;8.548;2023-03-15T06:34:48;100606.38;;;7.11
19568;BMP280;9930;49.240;8.548;2023-03-15T06:37:14;100596.75;;;7.06
19568;BMP280;9930;49.240;8.548;2023-03-15T06:39:40;100617.72;;;7.18
19568;BMP280;9930;49.240;8.548;2023-03-15T06:42:10;100614.47;;;7.21
19568;BMP280;9930;49.240;8.548;2023-03-15T06:44:39;100617.97;;;7.23
19568;BMP280;9930;49.240;8.548;2023-03-15T06:47:07;100609.66;;;7.25
19568;BMP280;9930;49.240;8.548;2023-03-15T06:49:34;100620.03;;;7.30
19568;BMP280;9930;49.240;8.548;2023-03-15T06:52:02;100621.16;;;7.35
19568;BMP280;9930;49.240;8.548;2023-03-15T06:54:30;100618.06;;;7.40
19568;BMP280;9930;49.240;8.548;2023-03-15T06:56:59;100614.03;;;7.44
19568;BMP280;9930;49.240;8.548;2023-03-15T06:59:27;100616.19;;;7.53
19568;BMP280;9930;49.240;8.548;2023-03-15T07:01:56;100623.25;;;7.58
19568;BMP280;9930;49.240;8.548;2023-03-15T07:04:23;100618.09;;;7.57
19568;BMP280;9930;49.240;8.548;2023-03-15T07:06:52;100634.84;;;7.69
19568;BMP280;9930;49.240;8.548;2023-03-15T07:09:18;100618.81;;;7.70
19568;BMP280;9930;49.240;8.548;2023-03-15T07:11:44;100635.56;;;7.83
19568;BMP280;9930;49.240;8.548;2023-03-15T07:14:12;100627.00;;;7.81
19568;BMP280;9930;49.240;8.548;2023-03-15T07:16:38;100641.03;;;7.91
19568;BMP280;9930;49.240;8.548;2023-03-15T07:19:04;100641.13;;;7.92
19568;BMP280;9930;49.240;8.548;2023-03-15T07:21:30;100640.25;;;7.92
19568;BMP280;9930;49.240;8.548;2023-03-15T07:23:58;100647.94;;;7.93
19568;BMP280;9930;49.240;8.548;2023-03-15T07:26:24;100647.22;;;7.96
19568;BMP280;9930;49.240;8.548;2023-03-15T07:28:50;100617.56;;;7.78
19568;BMP280;9930;49.240;8.548;2023-03-15T07:31:18;100642.94;;;7.95
19568;BMP280;9930;49.240;8.548;2023-03-15T07:33:44;100629.22;;;7.91
19568;BMP280;9930;49.240;8.548;2023-03-15T07:36:14;100647.38;;;7.99
19568;BMP280;9930;49.240;8.548;2023-03-15T07:38:43;100617.63;;;7.80
19568;BMP280;9930;49.240;8.548;2023-03-15T07:41:09;100657.00;;;8.04
19568;BMP280;9930;49.240;8.548;2023-03-15T07:43:37;100657.78;;;8.03
19568;BMP280;9930;49.240;8.548;2023-03-15T07:46:03;100664.06;;;8.10
19568;BMP280;9930;49.240;8.548;2023-03-15T07:48:29;100662.63;;;8.15
19568;BMP280;9930;49.240;8.548;2023-03-15T07:51:02;100657.94;;;8.23
19568;BMP280;9930;49.240;8.548;2023-03-15T07:53:30;100644.28;;;8.21
19568;BMP280;9930;49.240;8.548;2023-03-15T07:56:01;100667.06;;;8.35
19568;BMP280;9930;49.240;8.548;2023-03-15T07:58:27;100660.31;;;8.36
19568;BMP280;9930;49.240;8.548;2023-03-15T08:01:02;100659.59;;;8.38
19568;BMP280;9930;49.240;8.548;2023-03-15T08:03:28;100668.34;;;8.43
19568;BMP280;9930;49.240;8.548;2023-03-15T08:05:58;100657.94;;;8.39
19568;BMP280;9930;49.240;8.548;2023-03-15T08:08:25;100666.75;;;8.46
19568;BMP280;9930;49.240;8.548;2023-03-15T08:10:51;100671.09;;;8.48
19568;BMP280;9930;49.240;8.548;2023-03-15T08:13:17;100682.31;;;8.52
19568;BMP280;9930;49.240;8.548;2023-03-15T08:15:51;100688.47;;;8.57
19568;BMP280;9930;49.240;8.548;2023-03-15T08:18:16;100673.16;;;8.55
19568;BMP280;9930;49.240;8.548;2023-03-15T08:20:42;100693.72;;;8.60
19568;BMP280;9930;49.240;8.548;2023-03-15T08:23:10;100700.13;;;8.69
19568;BMP280;9930;49.240;8.548;2023-03-15T08:25:43;100694.75;;;8.63
19568;BMP280;9930;49.240;8.548;2023-03-15T08:28:10;100708.78;;;8.73
19568;BMP280;9930;49.240;8.548;2023-03-15T08:30:38;100691.56;;;8.67
19568;BMP280;9930;49.240;8.548;2023-03-15T08:33:04;100673.47;;;8.61
19568;BMP280;9930;49.240;8.548;2023-03-15T08:35:32;100690.25;;;8.75
19568;BMP280;9930;49.240;8.548;2023-03-15T08:38:02;100703.44;;;8.85
19568;BMP280;9930;49.240;8.548;2023-03-15T08:40:29;100690.72;;;8.85
19568;BMP280;9930;49.240;8.548;2023-03-15T08:42:58;100698.78;;;8.94
19568;BMP280;9930;49.240;8.548;2023-03-15T08:45:28;100696.31;;;8.95
19568;BMP280;9930;49.240;8.548;2023-03-15T08:47:59;100696.41;;;8.97
19568;BMP280;9930;49.240;8.548;2023-03-15T08:50:29;100710.94;;;8.99
19568;BMP280;9930;49.240;8.548;2023-03-15T08:52:58;100700.69;;;8.98
19568;BMP280;9930;49.240;8.548;2023-03-15T08:55:27;100698.72;;;8.92
19568;BMP280;9930;49.240;8.548;2023-03-15T08:57:54;100701.41;;;8.95
19568;BMP280;9930;49.240;8.548;2023-03-15T09:00:27;100713.78;;;9.05
19568;BMP280;9930;49.240;8.548;2023-03-15T09:02:54;100707.09;;;9.07
19568;BMP280;9930;49.240;8.548;2023-03-15T09:05:23;100697.50;;;9.02
19568;BMP280;9930;49.240;8.548;2023-03-15T09:07:50;100703.09;;;9.13
19568;BMP280;9930;49.240;8.548;2023-03-15T09:10:18;100695.47;;;9.13
19568;BMP280;9930;49.240;8.548;2023-03-15T09:12:48;100702.44;;;9.17
19568;BMP280;9930;49.240;8.548;2023-03-15T09:15:17;100707.09;;;9.25
19568;BMP280;9930;49.240;8.548;2023-03-15T09:17:44;100711.31;;;9.25
19568;BMP280;9930;49.240;8.548;2023-03-15T09:20:12;100704.78;;;9.30
19568;BMP280;9930;49.240;8.548;2023-03-15T09:22:49;100718.00;;;9.40
19568;BMP280;9930;49.240;8.548;2023-03-15T09:25:16;100722.50;;;9.46
19568;BMP280;9930;49.240;8.548;2023-03-15T09:27:42;100726.16;;;9.51
19568;BMP280;9930;49.240;8.548;2023-03-15T09:30:11;100727.22;;;9.56
19568;BMP280;9930;49.240;8.548;2023-03-15T09:32:37;100732.63;;;9.62
19568;BMP280;9930;49.240;8.548;2023-03-15T09:35:05;100716.25;;;9.57
19568;BMP280;9930;49.240;8.548;2023-03-15T09:37:32;100739.72;;;9.69
19568;BMP280;9930;49.240;8.548;2023-03-15T09:39:59;100725.97;;;9.66
19568;BMP280;9930;49.240;8.548;2023-03-15T09:51:56;100744.44;;;9.80
19568;BMP280;9930;49.240;8.548;2023-03-15T09:57:04;100745.59;;;9.86
19568;BMP280;9930;49.240;8.548;2023-03-15T09:59:41;100755.00;;;9.87
19568;BMP280;9930;49.240;8.548;2023-03-15T10:05:12;100762.63;;;9.87
19568;BMP280;9930;49.240;8.548;2023-03-15T10:07:40;100743.78;;;9.84
19568;BMP280;9930;49.240;8.548;2023-03-15T10:10:33;100759.94;;;9.84
19568;BMP280;9930;49.240;8.548;2023-03-15T10:19:47;100755.97;;;9.71
19568;BMP280;9930;49.240;8.548;2023-03-15T10:22:33;100760.19;;;9.71
19568;BMP280;9930;49.240;8.548;2023-03-15T10:25:23;100740.09;;;9.59
19568;BMP280;9930;49.240;8.548;2023-03-15T10:28:19;100752.25;;;9.65
19568;BMP280;9930;49.240;8.548;2023-03-15T10:30:49;100751.38;;;9.64
19568;BMP280;9930;49.240;8.548;2023-03-15T10:35:57;100771.44;;;9.76
19568;BMP280;9930;49.240;8.548;2023-03-15T10:38:25;100771.53;;;9.78
19568;BMP280;9930;49.240;8.548;2023-03-15T10:40:59;100754.13;;;9.69
19568;BMP280;9930;49.240;8.548;2023-03-15T10:43:27;100777.78;;;9.84
19568;BMP280;9930;49.240;8.548;2023-03-15T10:46:02;100776.09;;;9.85
19568;BMP280;9930;49.240;8.548;2023-03-15T10:48:51;100775.31;;;9.86
19568;BMP280;9930;49.240;8.548;2023-03-15T10:51:36;100765.91;;;9.85
19568;BMP280;9930;49.240;8.548;2023-03-15T10:54:21;100763.66;;;9.91
19568;BMP280;9930;49.240;8.548;2023-03-15T10:57:12;100758.69;;;9.94
19568;BMP280;9930;49.240;8.548;2023-03-15T11:00:01;100753.72;;;9.97
19568;BMP280;9930;49.240;8.548;2023-03-15T11:02:31;100750.38;;;9.98
19568;BMP280;9930;49.240;8.548;2023-03-15T11:07:36;100730.53;;;9.91
19568;BMP280;9930;49.240;8.548;2023-03-15T11:10:06;100765.94;;;10.22
19568;BMP280;9930;49.240;8.548;2023-03-15T11:12:35;100768.75;;;10.28
19568;BMP280;9930;49.240;8.548;2023-03-15T11:15:10;100761.25;;;10.31
19568;BMP280;9930;49.240;8.548;2023-03-15T11:17:46;100763.25;;;10.38
19568;BMP280;9930;49.240;8.548;2023-03-15T11:23:32;100761.88;;;10.46
19568;BMP280;9930;49.240;8.548;2023-03-15T11:25:59;100760.19;;;10.47
19568;BMP280;9930;49.240;8.548;2023-03-15T11:28:30;100757.66;;;10.47
19568;BMP280;9930;49.240;8.548;2023-03-15T11:31:00;100770.81;;;10.56
19568;BMP280;9930;49.240;8.548;2023-03-15T11:36:27;100759.78;;;10.57
19568;BMP280;9930;49.240;8.548;2023-03-15T11:39:02;100765.28;;;10.66
19568;BMP280;9930;49.240;8.548;2023-03-15T11:41:35;100746.56;;;10.65
19568;BMP280;9930;49.240;8.548;2023-03-15T11:46:49;100767.63;;;10.81
19568;BMP280;9930;49.240;8.548;2023-03-15T11:52:14;100762.63;;;10.84
19568;BMP280;9930;49.240;8.548;2023-03-15T11:54:40;100763.56;;;10.86
19568;BMP280;9930;49.240;8.548;2023-03-15T11:57:41;100760.91;;;10.83
19568;BMP280;9930;49.240;8.548;2023-03-15T12:00:25;100760.09;;;10.84
19568;BMP280;9930;49.240;8.548;2023-03-15T12:06:32;100765.06;;;10.81
19568;BMP280;9930;49.240;8.548;2023-03-15T12:08:59;100769.28;;;10.80
19568;BMP280;9930;49.240;8.548;2023-03-15T12:16:30;100760.03;;;10.82
19568;BMP280;9930;49.240;8.548;2023-03-15T12:19:07;100768.63;;;10.84
19568;BMP280;9930;49.240;8.548;2023-03-15T12:21:42;100764.44;;;10.86
19568;BMP280;9930;49.240;8.548;2023-03-15T12:24:24;100744.25;;;10.71
19568;BMP280;9930;49.240;8.548;2023-03-15T12:27:02;100753.38;;;10.86
19568;BMP280;9930;49.240;8.548;2023-03-15T12:29:34;100728.22;;;10.74
19568;BMP280;9930;49.240;8.548;2023-03-15T12:56:28;100766.44;;;11.35
19568;BMP280;9930;49.240;8.548;2023-03-15T12:59:18;100774.59;;;11.47
19568;BMP280;9930;49.240;8.548;2023-03-15T13:01:45;100774.09;;;11.56
19568;BMP280;9930;49.240;8.548;2023-03-15T13:04:14;100776.25;;;11.67
19568;BMP280;9930;49.240;8.548;2023-03-15T13:07:39;100770.72;;;11.78
19568;BMP280;9930;49.240;8.548;2023-03-15T13:16:55;100769.31;;;12.08
19568;BMP280;9930;49.240;8.548;2023-03-15T13:23:03;100760.75;;;12.30
19568;BMP280;9930;49.240;8.548;2023-03-15T13:28:56;100746.09;;;12.50
19568;BMP280;9930;49.240;8.548;2023-03-15T13:31:28;100753.28;;;12.60
19568;BMP280;9930;49.240;8.548;2023-03-15T13:36:47;100755.09;;;12.62
19568;BMP280;9930;49.240;8.548;2023-03-15T13:39:21;100751.13;;;12.47
19568;BMP280;9930;49.240;8.548;2023-03-15T13:41:55;100754.31;;;12.41
19568;BMP280;9930;49.240;8.548;2023-03-15T13:44:22;100731.25;;;12.16
19568;BMP280;9930;49.240;8.548;2023-03-15T13:46:52;100752.63;;;12.18
19568;BMP280;9930;49.240;8.548;2023-03-15T13:49:21;100749.97;;;12.15
19568;BMP280;9930;49.240;8.548;2023-03-15T13:51:52;100744.75;;;12.12
19568;BMP280;9930;49.240;8.548;2023-03-15T13:54:37;100745.56;;;12.11
19568;BMP280;9930;49.240;8.548;2023-03-15T13:57:17;100731.38;;;11.96
19568;BMP280;9930;49.240;8.548;2023-03-15T13:59:49;100716.66;;;11.89
19568;BMP280;9930;49.240;8.548;2023-03-15T14:05:06;100720.41;;;11.99
19568;BMP280;9930;49.240;8.548;2023-03-15T14:07:40;100737.75;;;12.08
19568;BMP280;9930;49.240;8.548;2023-03-15T14:10:22;100739.41;;;12.06
19568;BMP280;9930;49.240;8.548;2023-03-15T14:12:51;100741.78;;;12.01
19568;BMP280;9930;49.240;8.548;2023-03-15T14:15:40;100746.91;;;12.01
19568;BMP280;9930;49.240;8.548;2023-03-15T14:20:53;100731.50;;;11.99
19568;BMP280;9930;49.240;8.548;2023-03-15T14:23:28;100732.31;;;11.98
19568;BMP280;9930;49.240;8.548;2023-03-15T14:26:28;100721.06;;;11.93
19568;BMP280;9930;49.240;8.548;2023-03-15T14:29:04;100716.00;;;11.95
19568;BMP280;9930;49.240;8.548;2023-03-15T14:31:45;100716.28;;;12.03
19568;BMP280;9930;49.240;8.548;2023-03-15T14:34:45;100725.81;;;12.07
19568;BMP280;9930;49.240;8.548;2023-03-15T14:37:39;100724.22;;;12.10
19568;BMP280;9930;49.240;8.548;2023-03-15T14:42:44;100696.63;;;12.02
19568;BMP280;9930;49.240;8.548;2023-03-15T14:45:11;100725.81;;;12.30
19568;BMP280;9930;49.240;8.548;2023-03-15T14:47:47;100732.06;;;12.39
19568;BMP280;9930;49.240;8.548;2023-03-15T14:50:18;100727.22;;;12.46
19568;BMP280;9930;49.240;8.548;2023-03-15T14:52:47;100733.47;;;12.54
19568;BMP280;9930;49.240;8.548;2023-03-15T14:55:32;100719.88;;;12.55
19568;BMP280;9930;49.240;8.548;2023-03-15T14:58:19;100693.81;;;12.42
19568;BMP280;9930;49.240;8.548;2023-03-15T15:00:54;100736.47;;;12.67
19568;BMP280;9930;49.240;8.548;2023-03-15T15:03:36;100741.69;;;12.70
19568;BMP280;9930;49.240;8.548;2023-03-15T15:06:10;100743.38;;;12.69
19568;BMP280;9930;49.240;8.548;2023-03-15T15:08:38;100750.28;;;12.72
19568;BMP280;9930;49.240;8.548;2023-03-15T15:11:09;100741.56;;;12.67
19568;BMP280;9930;49.240;8.548;2023-03-15T15:13:37;100737.31;;;12.67
19568;BMP280;9930;49.240;8.548;2023-03-15T15:16:04;100757.41;;;12.80
19568;BMP280;9930;49.240;8.548;2023-03-15T15:18:34;100746.19;;;12.77
19568;BMP280;9930;49.240;8.548;2023-03-15T15:21:29;100749.50;;;12.74
19568;BMP280;9930;49.240;8.548;2023-03-15T15:23:57;100751.25;;;12.75
19568;BMP280;9930;49.240;8.548;2023-03-15T15:26:27;100731.94;;;12.59
19568;BMP280;9930;49.240;8.548;2023-03-15T15:28:56;100757.03;;;12.70
19568;BMP280;9930;49.240;8.548;2023-03-15T15:31:29;100755.19;;;12.65
19568;BMP280;9930;49.240;8.548;2023-03-15T15:34:01;100757.59;;;12.61
19568;BMP280;9930;49.240;8.548;2023-03-15T15:36:37;100754.00;;;12.56
19568;BMP280;9930;49.240;8.548;2023-03-15T15:41:45;100770.81;;;12.49
19568;BMP280;9930;49.240;8.548;2023-03-15T15:44:17;100774.09;;;12.45
19568;BMP280;9930;49.240;8.548;2023-03-15T15:46:44;100773.06;;;12.40
19568;BMP280;9930;49.240;8.548;2023-03-15T15:49:10;100780.56;;;12.36
19568;BMP280;9930;49.240;8.548;2023-03-15T15:51:42;100781.31;;;12.33
19568;BMP280;9930;49.240;8.548;2023-03-15T15:54:17;100761.13;;;12.17
19568;BMP280;9930;49.240;8.548;2023-03-15T15:56:57;100771.28;;;12.15
19568;BMP280;9930;49.240;8.548;2023-03-15T15:59:29;100786.81;;;12.20
19568;BMP280;9930;49.240;8.548;2023-03-15T16:01:59;100793.78;;;12.24
19568;BMP280;9930;49.240;8.548;2023-03-15T16:04:31;100797.97;;;12.22
19568;BMP280;9930;49.240;8.548;2023-03-15T16:07:01;100807.09;;;12.15
19568;BMP280;9930;49.240;8.548;2023-03-15T16:09:31;100817.97;;;12.10
19568;BMP280;9930;49.240;8.548;2023-03-15T16:12:00;100815.81;;;11.98
19568;BMP280;9930;49.240;8.548;2023-03-15T16:14:28;100810.28;;;11.87
19568;BMP280;9930;49.240;8.548;2023-03-15T16:16:55;100821.09;;;11.80
19568;BMP280;9930;49.240;8.548;2023-03-15T16:19:24;100813.09;;;11.73
19568;BMP280;9930;49.240;8.548;2023-03-15T16:21:56;100805.00;;;11.62
19568;BMP280;9930;49.240;8.548;2023-03-15T16:24:31;100816.97;;;11.63